Time;durP1;ratioP1;P1;durP2;ratioP2;P2;SDS_P1;SDS_P2;PMS_P1;PMS_P2;Temp;Humidity;BMP_temperature;BMP_pressure;BME280_temperature;BME280_humidity;BME280_pressure;Samples;Min_cycle;Max_cycle;Signal;HPM_P1;HPM_P2
2022/04/02 00:01:48;;;;;;;;;;;2.40;93.80;;;;;;8418625;28;19924;-68
2022/04/02 00:05:49;;;;;;;;;;;2.40;93.70;;;;;;8400857;28;19938;-68
2022/04/02 00:09:51;;;;;;;;;;;2.30;93.80;;;;;;8394644;28;19925;-68
2022/04/02 00:13:53;;;;;;;;;;;2.30;93.80;;;;;;8399071;28;19931;-68
2022/04/02 00:17:54;;;;;;;;;;;2.30;93.90;;;;;;8423802;28;19924;-68
2022/04/02 00:21:56;;;;;;;;;;;2.30;93.90;;;;;;8420808;28;19954;-68
2022/04/02 00:25:58;;;;;;;;;;;2.20;93.90;;;;;;8395504;28;19925;-68
2022/04/02 00:29:59;;;;;;;;;;;2.20;93.80;;;;;;8407204;28;19955;-68
2022/04/02 00:34:01;;;;;;;;;;;2.20;93.80;;;;;;8419370;28;19947;-68
2022/04/02 00:38:03;;;;;;;;;;;2.10;93.80;;;;;;8414647;28;19931;-68
2022/04/02 00:42:05;;;;;;;;;;;2.10;93.80;;;;;;8413436;28;20340;-68
2022/04/02 00:46:08;;;;;;;;;;;2.10;93.70;;;;;;8413157;28;19928;-68
2022/04/02 00:50:11;;;;;;;;;;;2.10;93.70;;;;;;8407496;28;20345;-68
2022/04/02 00:54:13;;;;;;;;;;;2.10;93.70;;;;;;8389717;28;19928;-68
2022/04/02 00:58:16;;;;;;;;;;;2.10;93.70;;;;;;8417084;28;20363;-68
2022/04/02 01:02:19;;;;;;;;;;;2.00;93.70;;;;;;8414146;28;20283;-68
2022/04/02 01:06:21;;;;;;;;;;;2.00;93.70;;;;;;8417732;28;20268;-68
2022/04/02 01:10:23;;;;;;;;;;;2.00;93.50;;;;;;8411704;28;20239;-68
2022/04/02 01:14:24;;;;;;;;;;;1.90;93.50;;;;;;8400175;28;20347;-68
2022/04/02 01:18:26;;;;;;;;;;;1.90;93.50;;;;;;8409244;28;19932;-68
2022/04/02 01:22:28;;;;;;;;;;;1.90;93.50;;;;;;8421166;28;19931;-68
2022/04/02 01:26:30;;;;;;;;;;;1.80;93.50;;;;;;8423207;28;19946;-68
2022/04/02 01:30:32;;;;;;;;;;;1.80;93.40;;;;;;8414153;28;19924;-68
2022/04/02 01:34:34;;;;;;;;;;;1.80;93.40;;;;;;8412957;28;20371;-68
2022/04/02 01:38:35;;;;;;;;;;;1.80;93.50;;;;;;8413190;28;19928;-68
2022/04/02 01:42:37;;;;;;;;;;;1.70;93.50;;;;;;8417368;28;19928;-68
2022/04/02 01:46:38;;;;;;;;;;;1.70;93.60;;;;;;8417843;28;20000;-68
2022/04/02 01:50:41;;;;;;;;;;;1.70;93.60;;;;;;8417986;28;19931;-68
2022/04/02 01:54:43;;;;;;;;;;;1.70;93.70;;;;;;8412742;28;19924;-68
2022/04/02 01:58:45;;;;;;;;;;;1.70;93.60;;;;;;8399152;28;20363;-68
2022/04/02 02:02:47;;;;;;;;;;;1.70;93.60;;;;;;8412583;28;19932;-68
2022/04/02 02:06:48;;;;;;;;;;;1.70;93.60;;;;;;8411301;28;19935;-68
2022/04/02 02:10:50;;;;;;;;;;;1.70;93.70;;;;;;8412463;28;19925;-68
2022/04/02 02:14:52;;;;;;;;;;;1.70;93.60;;;;;;8400528;28;20283;-67
2022/04/02 02:18:53;;;;;;;;;;;1.70;93.60;;;;;;8417111;28;20409;-68
2022/04/02 02:22:55;;;;;;;;;;;1.70;93.60;;;;;;8409889;28;20375;-68
2022/04/02 02:26:57;;;;;;;;;;;1.70;93.70;;;;;;8423913;28;19929;-68
2022/04/02 02:30:59;;;;;;;;;;;1.70;93.70;;;;;;8426007;28;19928;-68
2022/04/02 02:39:21;;;;;;;;;;;1.70;93.60;;;;;;8423645;28;19930;-68
2022/04/02 02:43:23;;;;;;;;;;;1.80;93.70;;;;;;8425579;28;19943;-68
2022/04/02 02:47:24;;;;;;;;;;;1.80;93.60;;;;;;8422819;28;19932;-68
2022/04/02 02:51:26;;;;;;;;;;;1.80;93.60;;;;;;8403028;28;19932;-68
2022/04/02 02:55:31;;;;;;;;;;;1.80;93.60;;;;;;8420890;28;19936;-68
2022/04/02 02:59:34;;;;;;;;;;;1.80;93.70;;;;;;8420965;28;19931;-68
2022/04/02 03:03:36;;;;;;;;;;;1.80;93.80;;;;;;8425941;28;19931;-68
2022/04/02 03:07:48;;;;;;;;;;;1.80;93.80;;;;;;8421365;28;19932;-68
2022/04/02 03:11:50;;;;;;;;;;;1.80;93.60;;;;;;8400736;28;19970;-67
2022/04/02 03:15:51;;;;;;;;;;;1.80;93.60;;;;;;8422090;28;19924;-68
2022/04/02 03:19:53;;;;;;;;;;;1.80;93.70;;;;;;8420991;28;19928;-68
2022/04/02 03:23:55;;;;;;;;;;;1.80;93.60;;;;;;8419715;28;20000;-68
2022/04/02 03:27:57;;;;;;;;;;;1.80;93.60;;;;;;8420358;28;19932;-68
2022/04/02 03:31:58;;;;;;;;;;;1.70;93.50;;;;;;8423674;28;19924;-68
2022/04/02 03:36:00;;;;;;;;;;;1.70;93.40;;;;;;8418401;28;19932;-68
2022/04/02 03:40:04;;;;;;;;;;;1.60;93.40;;;;;;8418933;28;20295;-68
2022/04/02 03:44:05;;;;;;;;;;;1.60;93.40;;;;;;8422152;28;19939;-68
2022/04/02 03:48:07;;;;;;;;;;;1.50;93.40;;;;;;8419443;28;19930;-68
2022/04/02 03:52:09;;;;;;;;;;;1.50;93.40;;;;;;8417404;28;19928;-68
2022/04/02 03:56:11;;;;;;;;;;;1.40;93.50;;;;;;8418646;28;19931;-68
2022/04/02 04:00:13;;;;;;;;;;;1.40;93.50;;;;;;8429714;28;20379;-68
2022/04/02 04:04:14;;;;;;;;;;;1.30;93.40;;;;;;8417243;28;20080;-68
2022/04/02 04:08:16;;;;;;;;;;;1.30;93.40;;;;;;8412088;28;20379;-68
2022/04/02 04:12:19;;;;;;;;;;;1.30;93.30;;;;;;8411318;28;19956;-68
2022/04/02 04:16:20;;;;;;;;;;;1.20;93.40;;;;;;8423588;28;19928;-68
2022/04/02 04:20:22;;;;;;;;;;;1.20;93.40;;;;;;8420531;28;20063;-68
2022/04/02 04:24:24;;;;;;;;;;;1.10;93.30;;;;;;8419924;28;20038;-68
2022/04/02 04:28:25;;;;;;;;;;;1.10;93.30;;;;;;8417300;28;20394;-68
2022/04/02 04:32:27;;;;;;;;;;;1.10;93.30;;;;;;8425154;28;20402;-68
2022/04/02 04:36:29;;;;;;;;;;;1.00;93.30;;;;;;8417684;28;19935;-68
2022/04/02 04:40:31;;;;;;;;;;;1.00;93.20;;;;;;8410906;28;19924;-68
2022/04/02 04:44:32;;;;;;;;;;;0.90;93.10;;;;;;8397459;28;19932;-67
2022/04/02 04:48:37;;;;;;;;;;;0.80;93.10;;;;;;8400344;28;19925;-68
2022/04/02 04:52:39;;;;;;;;;;;0.80;93.00;;;;;;8397354;28;19929;-68
2022/04/02 04:56:41;;;;;;;;;;;0.70;93.10;;;;;;8413809;28;19924;-68
2022/04/02 05:00:43;;;;;;;;;;;0.70;93.10;;;;;;8389651;28;19924;-68
2022/04/02 05:04:44;;;;;;;;;;;0.70;93.10;;;;;;8403842;28;19998;-68
2022/04/02 05:08:46;;;;;;;;;;;0.70;93.10;;;;;;8407662;28;19924;-68
2022/04/02 05:12:48;;;;;;;;;;;0.60;93.10;;;;;;8399636;28;20330;-68
2022/04/02 05:16:52;;;;;;;;;;;0.60;93.10;;;;;;8410120;28;19928;-68
2022/04/02 05:25:56;;;;;;;;;;;0.60;93.20;;;;;;8402947;28;19918;-68
2022/04/02 05:29:58;;;;;;;;;;;0.50;93.30;;;;;;8408515;28;19928;-68
2022/04/02 05:34:00;;;;;;;;;;;0.60;93.40;;;;;;8400225;28;19924;-68
2022/04/02 05:38:01;;;;;;;;;;;0.60;93.40;;;;;;8406500;28;19932;-68
2022/04/02 05:42:05;;;;;;;;;;;0.70;93.60;;;;;;8412881;28;19924;-68
2022/04/02 05:46:07;;;;;;;;;;;0.70;93.70;;;;;;8402000;28;20303;-68
2022/04/02 05:50:10;;;;;;;;;;;0.70;93.70;;;;;;8398332;28;19955;-68
2022/04/02 05:54:33;;;;;;;;;;;0.80;93.90;;;;;;8387525;28;20660;-68
2022/04/02 05:58:37;;;;;;;;;;;0.90;94.10;;;;;;8408626;28;20378;-68
2022/04/02 06:02:38;;;;;;;;;;;0.90;94.20;;;;;;8408214;28;19928;-68
2022/04/02 06:06:40;;;;;;;;;;;1.00;94.50;;;;;;8414314;28;19939;-68
2022/04/02 06:10:44;;;;;;;;;;;1.10;94.50;;;;;;8406251;28;20375;-68
2022/04/02 06:14:46;;;;;;;;;;;1.20;94.90;;;;;;8390989;28;19925;-68
2022/04/02 06:18:47;;;;;;;;;;;1.30;94.90;;;;;;8385766;28;20385;-68
2022/04/02 06:22:49;;;;;;;;;;;1.40;95.00;;;;;;8409362;28;20318;-68
2022/04/02 06:26:50;;;;;;;;;;;1.50;95.20;;;;;;8382623;28;20591;-68
2022/04/02 06:30:52;;;;;;;;;;;1.60;95.40;;;;;;8421060;28;20260;-68
2022/04/02 06:34:54;;;;;;;;;;;1.70;95.40;;;;;;8398647;28;20032;-68
2022/04/02 06:38:56;;;;;;;;;;;1.80;95.60;;;;;;8397577;28;19939;-68
2022/04/02 06:42:58;;;;;;;;;;;2.00;95.80;;;;;;8384319;28;19951;-68
2022/04/02 06:47:00;;;;;;;;;;;2.10;95.90;;;;;;8390062;28;19928;-68
2022/04/02 06:51:02;;;;;;;;;;;2.30;96.00;;;;;;8375555;28;19928;-67
2022/04/02 06:55:03;;;;;;;;;;;2.50;96.20;;;;;;8387143;28;20149;-68
2022/04/02 06:59:06;;;;;;;;;;;2.60;96.10;;;;;;8370689;28;19950;-68
2022/04/02 07:03:08;;;;;;;;;;;2.60;96.10;;;;;;8395405;28;19925;-68
2022/04/02 07:07:10;;;;;;;;;;;2.70;96.30;;;;;;8407815;28;20387;-68
2022/04/02 07:11:12;;;;;;;;;;;2.80;96.40;;;;;;8395476;28;19925;-68
2022/04/02 07:15:13;;;;;;;;;;;2.90;96.60;;;;;;8404098;28;20387;-68
2022/04/02 07:19:19;;;;;;;;;;;3.00;96.60;;;;;;8407574;28;19940;-68
2022/04/02 07:23:21;;;;;;;;;;;3.10;96.70;;;;;;8396582;28;19925;-68
2022/04/02 07:27:24;;;;;;;;;;;3.20;97.00;;;;;;8403068;28;19939;-68
2022/04/02 07:31:25;;;;;;;;;;;3.40;97.10;;;;;;8391888;28;19935;-68
2022/04/02 07:35:31;;;;;;;;;;;3.50;97.00;;;;;;8371256;28;20366;-68
2022/04/02 07:39:37;;;;;;;;;;;3.60;97.10;;;;;;8382647;28;19939;-68
2022/04/02 07:43:54;;;;;;;;;;;3.80;97.20;;;;;;8390689;28;19932;-68
2022/04/02 07:47:57;;;;;;;;;;;3.90;97.30;;;;;;8392314;28;19932;-68
2022/04/02 07:51:58;;;;;;;;;;;4.00;97.40;;;;;;8391019;28;19925;-68
2022/04/02 07:56:02;;;;;;;;;;;4.20;97.70;;;;;;8376682;28;19939;-68
2022/04/02 08:00:05;;;;;;;;;;;4.40;98.10;;;;;;8388369;28;19928;-68
2022/04/02 08:04:08;;;;;;;;;;;4.60;98.20;;;;;;8382194;28;20387;-68
2022/04/02 08:08:10;;;;;;;;;;;4.80;98.40;;;;;;8376320;28;19951;-68
2022/04/02 08:12:14;;;;;;;;;;;4.90;98.50;;;;;;8377626;28;19958;-68
2022/04/02 08:16:16;;;;;;;;;;;5.00;98.30;;;;;;8389882;28;19950;-68
2022/04/02 08:20:17;;;;;;;;;;;5.10;98.40;;;;;;8374557;28;19935;-67
2022/04/02 08:24:19;;;;;;;;;;;5.20;98.60;;;;;;8395027;28;19932;-68
2022/04/02 08:28:40;;;;;;;;;;;5.30;98.60;;;;;;8390698;28;20000;-68
2022/04/02 08:32:50;;;;;;;;;;;5.50;98.80;;;;;;8390547;28;19925;-68
2022/04/02 08:36:56;;;;;;;;;;;5.80;99.00;;;;;;8390432;28;20280;-68
2022/04/02 08:40:57;;;;;;;;;;;6.00;99.00;;;;;;8407979;28;20327;-68
2022/04/02 08:45:03;;;;;;;;;;;6.20;98.80;;;;;;8390387;28;19932;-68
2022/04/02 08:49:24;;;;;;;;;;;6.30;98.70;;;;;;8383501;28;19931;-68
2022/04/02 08:53:45;;;;;;;;;;;6.40;98.60;;;;;;8388705;28;19924;-68
2022/04/02 08:57:53;;;;;;;;;;;6.50;98.60;;;;;;8402162;28;20375;-68
2022/04/02 09:02:04;;;;;;;;;;;6.70;98.60;;;;;;8375682;28;20011;-68
2022/04/02 09:06:21;;;;;;;;;;;6.80;98.40;;;;;;8394650;28;19924;-68
2022/04/02 09:10:29;;;;;;;;;;;6.80;98.70;;;;;;8390562;28;19924;-68
2022/04/02 09:14:34;;;;;;;;;;;7.00;98.80;;;;;;8390764;28;19951;-68
2022/04/02 09:18:35;;;;;;;;;;;7.30;99.30;;;;;;8390276;28;19943;-68
2022/04/02 09:22:54;;;;;;;;;;;7.50;98.90;;;;;;8386067;28;19928;-68
2022/04/02 09:27:27;;;;;;;5.17;2.60;;;7.90;99.30;;;;;;8393074;28;19962;-68
2022/04/02 09:31:54;;;;;;;6.00;2.40;;;8.00;98.90;;;;;;8391130;28;20043;-68
2022/04/02 09:36:29;;;;;;;6.63;2.60;;;8.00;98.60;;;;;;8381884;28;20047;-68
2022/04/02 09:40:50;;;;;;;5.55;2.22;;;7.90;98.20;;;;;;8392961;28;20044;-68
2022/04/02 09:45:20;;;;;;;6.43;2.17;;;7.50;97.50;;;;;;8389289;28;20078;-68
2022/04/02 09:49:27;;;;;;;;;;;7.20;97.20;;;;;;8382425;28;20048;-68
2022/04/02 09:53:34;;;;;;;;;;;7.00;97.50;;;;;;8388114;28;19938;-68
2022/04/02 09:57:38;;;;;;;;;;;7.10;97.90;;;;;;8390003;28;19920;-68
2022/04/02 10:02:01;;;;;;;;;;;7.20;97.80;;;;;;8388811;28;19928;-68
2022/04/02 10:06:18;;;;;;;;;;;7.40;97.90;;;;;;8393850;28;19928;-68
2022/04/02 10:10:25;;;;;;;;;;;8.00;98.40;;;;;;8388953;28;19924;-68
2022/04/02 10:14:28;;;;;;;;;;;8.30;96.90;;;;;;8388962;28;20364;-68
2022/04/02 10:18:34;;;;;;;5.35;2.15;;;7.90;96.50;;;;;;8369856;28;19931;-68
2022/04/02 10:22:38;;;;;;;6.28;2.65;;;7.40;96.90;;;;;;8369003;28;20045;-68
2022/04/02 10:26:40;;;;;;;8.40;2.20;;;7.10;96.90;;;;;;8386870;28;20056;-68
2022/04/02 10:30:47;;;;;;;4.25;2.10;;;7.00;97.20;;;;;;8385137;28;20467;-68
2022/04/02 10:34:52;;;;;;;4.10;2.15;;;7.10;97.80;;;;;;8384357;28;20041;-68
2022/04/02 10:38:55;;;;;;;4.18;1.60;;;7.10;97.10;;;;;;8392211;28;20408;-68
2022/04/02 10:43:06;;;;;;;4.70;1.98;;;7.00;96.90;;;;;;8390500;28;20052;-68
2022/04/02 10:47:14;;;;;;;4.55;1.98;;;7.00;96.70;;;;;;8391452;28;20523;-68
2022/04/02 10:51:19;;;;;;;4.10;1.90;;;7.00;97.00;;;;;;8391511;28;20041;-68
2022/04/02 10:55:22;;;;;;;6.70;2.00;;;7.00;97.00;;;;;;8392924;28;20052;-68
2022/04/02 10:59:30;;;;;;;3.50;1.55;;;7.10;97.00;;;;;;8395013;28;20048;-68
2022/04/02 11:03:39;;;;;;;;;;;7.30;97.80;;;;;;8396072;28;20049;-68
2022/04/02 11:07:43;;;;;;;;;;;7.60;97.80;;;;;;8392699;28;20026;-68
2022/04/02 11:11:45;;;;;;;;;;;7.60;97.30;;;;;;8391052;28;19921;-68
2022/04/02 11:15:47;;;;;;;;;;;7.60;97.40;;;;;;8386750;28;19928;-68
2022/04/02 11:19:56;;;;;;;;;;;8.00;98.60;;;;;;8404829;28;20275;-68
2022/04/02 11:24:07;;;;;;;7.50;1.90;;;8.40;99.50;;;;;;8391442;28;19950;-68
2022/04/02 11:28:14;;;;;;;5.30;2.10;;;8.30;98.70;;;;;;8393139;28;20040;-68
2022/04/02 11:32:25;;;;;;;4.55;1.80;;;8.10;97.80;;;;;;8394413;28;19924;-68
2022/04/02 11:36:41;;;;;;;4.20;1.90;;;7.70;97.70;;;;;;8391736;28;20044;-68
2022/04/02 11:40:57;;;;;;;4.33;1.97;;;7.50;96.90;;;;;;8389920;28;20055;-68
2022/04/02 11:45:01;;;;;;;;;;;7.30;97.10;;;;;;8389073;28;20044;-68
2022/04/02 11:49:08;;;;;;;;;;;7.40;97.50;;;;;;8385556;28;19928;-68
2022/04/02 11:53:11;;;;;;;;;;;7.60;97.70;;;;;;8388886;28;19924;-68
2022/04/02 11:57:13;;;;;;;;;;;7.90;97.80;;;;;;8383778;28;19928;-68
2022/04/02 12:01:15;;;;;;;;;;;8.10;97.80;;;;;;8390915;28;19924;-68
2022/04/02 12:05:17;;;;;;;;;;;8.60;99.10;;;;;;8375470;28;19931;-68
2022/04/02 12:09:22;;;;;;;;;;;9.10;99.90;;;;;;8390198;28;19936;-68
2022/04/02 12:13:24;;;;;;;;;;;9.90;99.90;;;;;;8383480;28;19920;-68
2022/04/02 12:17:31;;;;;;;;;;;10.50;99.90;;;;;;8373768;28;19928;-68
2022/04/02 12:21:34;;;;;;;;;;;11.00;99.90;;;;;;8391020;28;19920;-68
2022/04/02 12:25:37;;;;;;;;;;;11.20;99.90;;;;;;8388136;28;19924;-68
2022/04/02 12:29:44;;;;;;;;;;;11.20;99.90;;;;;;8389586;28;20348;-68
2022/04/02 12:33:51;;;;;;;;;;;11.30;99.90;;;;;;8404396;28;19943;-68
2022/04/02 12:37:53;;;;;;;;;;;11.70;99.90;;;;;;8371180;28;20368;-68
2022/04/02 12:41:55;;;;;;;;;;;12.00;99.90;;;;;;8394966;28;19924;-68
2022/04/02 12:45:57;;;;;;;;;;;12.00;99.90;;;;;;8388908;28;19931;-68
2022/04/02 12:50:09;;;;;;;;;;;11.80;98.60;;;;;;8388149;28;19924;-68
2022/04/02 12:54:11;;;;;;;;;;;11.80;98.00;;;;;;8381576;28;20315;-68
2022/04/02 12:58:12;;;;;;;;;;;11.60;96.90;;;;;;8389462;28;19928;-68
2022/04/02 13:02:18;;;;;;;;;;;11.10;96.00;;;;;;8390149;28;19927;-68
2022/04/02 13:06:22;;;;;;;;;;;10.60;95.50;;;;;;8387442;28;19926;-68
2022/04/02 13:10:26;;;;;;;;;;;10.20;94.90;;;;;;8377175;28;19952;-68
2022/04/02 13:14:38;;;;;;;;;;;9.70;93.80;;;;;;8390791;28;19936;-68
2022/04/02 13:23:54;;;;;;;;;;;8.80;93.60;;;;;;8388923;28;19928;-68
2022/04/02 13:27:56;;;;;;;;;;;8.40;93.30;;;;;;8324328;28;20003;-68
2022/04/02 13:32:18;;;;;;;;;;;8.20;93.50;;;;;;8330174;28;19924;-68
2022/04/02 13:36:41;;;;;;;;;;;8.20;93.30;;;;;;8387992;28;20014;-68
2022/04/02 13:40:44;;;;;;;;;;;8.30;93.80;;;;;;8388746;28;19924;-68
2022/04/02 13:44:49;;;;;;;;;;;8.40;94.20;;;;;;8389239;28;19928;-68
2022/04/02 13:49:00;;;;;;;;;;;8.60;94.40;;;;;;8385738;28;19924;-68
2022/04/02 13:53:08;;;;;;;;;;;8.80;94.80;;;;;;8389183;28;19951;-68
2022/04/02 13:57:12;;;;;;;;;;;9.20;95.20;;;;;;8384586;28;20232;-68
2022/04/02 14:01:17;;;;;;;;;;;9.90;95.60;;;;;;8378819;28;20459;-68
2022/04/02 14:05:21;;;;;;;;;;;10.20;94.80;;;;;;8385875;28;19925;-68
2022/04/02 14:09:24;;;;;;;;;;;9.90;94.00;;;;;;8391701;28;20372;-68
2022/04/02 14:13:29;;;;;;;;;;;9.30;93.40;;;;;;8392340;28;20117;-68
2022/04/02 14:17:31;;;;;;;3.13;1.30;;;8.90;93.40;;;;;;8383804;28;20356;-68
2022/04/02 14:21:34;;;;;;;;;;;8.60;93.30;;;;;;8398486;28;19920;-68
2022/04/02 14:25:47;;;;;;;;;;;8.60;93.50;;;;;;8398113;28;19924;-68
2022/04/02 14:30:21;;;;;;;;;;;8.60;93.40;;;;;;8397272;28;20821;-68
2022/04/02 14:34:29;;;;;;;;;;;8.60;93.60;;;;;;8345873;28;20374;-68
2022/04/02 14:38:49;;;;;;;;;;;8.80;94.00;;;;;;8392263;28;19924;-68
2022/04/02 14:42:54;;;;;;;;;;;9.00;94.10;;;;;;8395032;28;19931;-68
2022/04/02 14:47:16;;;;;;;;;;;9.30;94.40;;;;;;8394939;28;20360;-68
2022/04/02 14:51:30;;;;;;;;;;;9.50;94.70;;;;;;8359809;28;19924;-69
2022/04/02 14:55:41;;;;;;;;;;;10.30;95.60;;;;;;8391040;28;19932;-68
2022/04/02 15:00:01;;;;;;;;;;;11.70;98.50;;;;;;8391542;28;19939;-69
2022/04/02 15:04:26;;;;;;;;;;;12.80;99.90;;;;;;8393795;28;19928;-69
2022/04/02 15:08:47;;;;;;;;;;;13.10;98.60;;;;;;8391599;28;19924;-68
2022/04/02 15:12:55;;;;;;;;;;;13.50;98.60;;;;;;8388698;28;19927;-68
2022/04/02 15:17:18;;;;;;;3.85;1.35;;;14.40;99.90;;;;;;8391891;28;19920;-68
2022/04/02 15:21:25;;;;;;;;;;;14.80;99.00;;;;;;8394730;28;20045;-68
2022/04/02 15:25:29;;;;;;;2.95;1.15;;;13.80;96.20;;;;;;8394891;28;19927;-68
2022/04/02 15:29:49;;;;;;;;;;;12.50;94.90;;;;;;8391662;28;19932;-68
2022/04/02 15:34:15;;;;;;;;;;;11.50;93.60;;;;;;8383558;28;19975;-68
2022/04/02 15:38:25;;;;;;;;;;;10.70;91.90;;;;;;8391557;28;20026;-68
2022/04/02 15:42:29;;;;;;;;;;;9.80;90.20;;;;;;8393175;28;19936;-68
2022/04/02 15:46:35;;;;;;;;;;;9.10;90.20;;;;;;8375620;28;20050;-68
2022/04/02 15:50:37;;;;;;;;;;;8.80;90.30;;;;;;8387475;28;20624;-68
2022/04/02 15:54:41;;;;;;;;;;;8.60;90.10;;;;;;8381808;28;20379;-68
2022/04/02 15:59:03;;;;;;;;;;;8.60;90.10;;;;;;8387665;28;19931;-68
2022/04/02 16:03:04;;;;;;;;;;;8.60;90.00;;;;;;8389375;28;19940;-68
2022/04/02 16:07:25;;;;;;;;;;;8.70;90.00;;;;;;8391675;28;19947;-68
2022/04/02 16:11:47;;;;;;;;;;;8.70;89.60;;;;;;8382807;28;19929;-68
2022/04/02 16:16:03;;;;;;;;;;;8.80;90.00;;;;;;8389542;28;19947;-68
2022/04/02 16:20:10;;;;;;;;;;;9.00;90.30;;;;;;8386045;28;19932;-68
2022/04/02 16:24:12;;;;;;;;;;;9.30;90.80;;;;;;8388377;28;20007;-68
2022/04/02 16:28:14;;;;;;;;;;;9.70;91.20;;;;;;8388808;28;19924;-68
2022/04/02 16:32:16;;;;;;;;;;;9.90;91.00;;;;;;8390250;28;19983;-68
2022/04/02 16:36:18;;;;;;;;;;;9.80;90.20;;;;;;8389949;28;19924;-68
2022/04/02 16:40:20;;;;;;;;;;;9.60;90.00;;;;;;8393173;28;19928;-68
2022/04/02 16:44:28;;;;;;;;;;;9.40;89.20;;;;;;8388348;28;19939;-68
2022/04/02 16:48:29;;;;;;;;;;;9.30;89.20;;;;;;8402866;28;19929;-68
2022/04/02 16:52:32;;;;;;;;;;;9.40;89.50;;;;;;8391668;28;19924;-68
2022/04/02 16:56:36;;;;;;;;;;;10.20;89.60;;;;;;8390470;28;19974;-68
2022/04/02 17:00:38;;;;;;;;;;;10.70;88.10;;;;;;8381230;28;19927;-68
2022/04/02 17:04:40;;;;;;;;;;;10.60;87.60;;;;;;8387695;28;20378;-68
2022/04/02 17:08:46;;;;;;;2.85;1.23;;;10.10;84.80;;;;;;8388256;28;19924;-68
2022/04/02 17:12:52;;;;;;;;;;;9.50;84.60;;;;;;8389531;28;20092;-68
2022/04/02 17:16:53;;;;;;;;;;;9.00;83.60;;;;;;8390618;28;19939;-68
2022/04/02 17:21:05;;;;;;;;;;;8.70;82.80;;;;;;8389172;28;19932;-68
2022/04/02 17:25:08;;;;;;;;;;;8.30;82.10;;;;;;8386467;28;19924;-68
2022/04/02 17:29:23;;;;;;;;;;;8.10;81.40;;;;;;8387352;28;19920;-68
2022/04/02 17:33:27;;;;;;;;;;;7.90;80.60;;;;;;8368663;28;19943;-68
2022/04/02 17:37:39;;;;;;;;;;;7.70;80.20;;;;;;8390097;28;20748;-68
2022/04/02 17:41:44;;;;;;;;;;;7.50;79.50;;;;;;8388617;28;19935;-68
2022/04/02 17:45:49;;;;;;;;;;;7.40;79.20;;;;;;8385614;28;19928;-68
2022/04/02 17:49:53;;;;;;;;;;;7.30;78.60;;;;;;8390186;28;20019;-68
2022/04/02 17:53:54;;;;;;;;;;;7.40;79.00;;;;;;8379251;28;19928;-68
2022/04/02 17:58:05;;;;;;;;;;;7.60;79.10;;;;;;8389210;28;19920;-68
2022/04/02 18:02:10;;;;;;;;;;;7.60;78.90;;;;;;8382580;28;19935;-68
2022/04/02 18:06:18;;;;;;;;;;;7.60;79.00;;;;;;8369382;28;19928;-68
2022/04/02 18:10:20;;;;;;;;;;;7.40;78.60;;;;;;8386165;28;19926;-68
2022/04/02 18:14:21;;;;;;;;;;;7.40;78.70;;;;;;8384128;28;19925;-68
2022/04/02 18:18:23;;;;;;;;;;;7.20;78.00;;;;;;8374399;28;20035;-68
2022/04/02 18:22:24;;;;;;;;;;;7.10;77.80;;;;;;8383069;28;19924;-68
2022/04/02 18:26:27;;;;;;;;;;;6.90;77.70;;;;;;8384926;28;19928;-68
2022/04/02 18:30:28;;;;;;;;;;;6.80;77.10;;;;;;8380766;28;19931;-68
2022/04/02 18:34:30;;;;;;;;;;;6.60;76.60;;;;;;8381201;28;19925;-68
2022/04/02 18:38:32;;;;;;;3.45;1.02;;;6.40;76.20;;;;;;8382523;28;19967;-68
2022/04/02 18:42:35;;;;;;;4.65;1.55;;;6.30;75.80;;;;;;8383905;28;20051;-68
2022/04/02 18:46:36;;;;;;;;;;;6.10;75.40;;;;;;8384103;28;20055;-68
2022/04/02 18:50:42;;;;;;;;;;;6.00;74.90;;;;;;8373047;28;19927;-68
2022/04/02 18:54:43;;;;;;;;;;;5.80;74.40;;;;;;8385528;28;19921;-68
2022/04/02 18:58:45;;;;;;;;;;;5.70;74.10;;;;;;8379010;28;20031;-68
2022/04/02 19:02:47;;;;;;;;;;;5.60;73.80;;;;;;8376665;28;19931;-68
2022/04/02 19:06:48;;;;;;;;;;;5.50;73.40;;;;;;8390053;28;19927;-68
2022/04/02 19:10:50;;;;;;;;;;;5.40;73.20;;;;;;8381366;28;19943;-68
2022/04/02 19:14:52;;;;;;;;;;;5.20;72.90;;;;;;8391350;28;19925;-68
2022/04/02 19:18:54;;;;;;;;;;;5.10;72.70;;;;;;8376868;28;19920;-68
2022/04/02 19:22:55;;;;;;;;;;;5.10;72.50;;;;;;8403061;28;19928;-68
2022/04/02 19:26:57;;;;;;;;;;;5.00;73.00;;;;;;8378738;28;19924;-68
2022/04/02 19:31:00;;;;;;;;;;;4.90;72.10;;;;;;8386581;28;19939;-67
2022/04/02 19:35:03;;;;;;;;;;;4.90;72.00;;;;;;8382154;28;19924;-68
2022/04/02 19:39:25;;;;;;;;;;;4.90;71.70;;;;;;8389205;28;19947;-68
2022/04/02 19:43:28;;;;;;;;;;;4.80;71.40;;;;;;8373244;28;20349;-68
2022/04/02 19:47:30;;;;;;;;;;;4.70;71.10;;;;;;8389216;28;19939;-68
2022/04/02 19:51:32;;;;;;;;;;;4.70;71.00;;;;;;8387595;28;19935;-68
2022/04/02 19:55:34;;;;;;;3.30;1.45;;;4.60;70.90;;;;;;8390995;28;20287;-68
2022/04/02 19:59:35;;;;;;;3.53;1.48;;;4.50;70.80;;;;;;8388720;28;20824;-68
2022/04/02 20:03:38;;;;;;;5.20;1.63;;;4.40;70.60;;;;;;8390955;28;20087;-68
2022/04/02 20:07:39;;;;;;;;;;;4.40;70.50;;;;;;8382996;28;19929;-68
2022/04/02 20:11:41;;;;;;;;;;;4.30;70.40;;;;;;8391265;28;19931;-67
2022/04/02 20:15:44;;;;;;;;;;;4.30;70.40;;;;;;8391077;28;19929;-68
2022/04/02 20:19:46;;;;;;;5.82;1.92;;;4.20;70.40;;;;;;8384874;28;19924;-68
2022/04/02 20:23:48;;;;;;;6.38;1.60;;;4.10;70.90;;;;;;8390525;28;20051;-68
2022/04/02 20:27:50;;;;;;;5.13;1.90;;;4.10;70.30;;;;;;8390523;28;20102;-68
2022/04/02 20:31:55;;;;;;;5.75;1.60;;;4.00;70.20;;;;;;8387265;28;20059;-67
2022/04/02 20:35:57;;;;;;;4.45;1.40;;;3.90;70.00;;;;;;8383108;28;20593;-68
2022/04/02 20:39:59;;;;;;;5.60;1.70;;;3.80;70.00;;;;;;8368098;28;20044;-68
2022/04/02 20:44:00;;;;;;;4.30;1.45;;;3.70;69.90;;;;;;8390019;28;19964;-68
2022/04/02 20:48:02;;;;;;;4.07;1.70;;;3.70;69.80;;;;;;8386685;28;20071;-68
2022/04/02 20:52:05;;;;;;;6.30;2.15;;;3.60;69.80;;;;;;8370539;28;20350;-68
2022/04/02 20:56:12;;;;;;;5.45;1.80;;;3.60;69.70;;;;;;8385852;28;20427;-68
2022/04/02 21:00:14;;;;;;;4.72;2.00;;;3.60;69.70;;;;;;8385577;28;20056;-68
2022/04/02 21:04:16;;;;;;;3.78;1.67;;;3.50;69.60;;;;;;8401436;28;20049;-68
2022/04/02 21:08:18;;;;;;;5.65;1.92;;;3.40;69.70;;;;;;8395203;28;20074;-68
2022/04/02 21:12:20;;;;;;;4.32;1.67;;;3.40;69.50;;;;;;8393905;28;20063;-68
2022/04/02 21:16:21;;;;;;;4.60;1.80;;;3.30;69.30;;;;;;8391836;28;20454;-68
2022/04/02 21:20:24;;;;;;;5.75;1.80;;;3.20;69.20;;;;;;8389175;28;20064;-68
2022/04/02 21:24:25;;;;;;;4.82;2.40;;;3.10;69.10;;;;;;8364369;28;20055;-68
2022/04/02 21:28:27;;;;;;;6.05;2.67;;;3.00;68.90;;;;;;8372574;28;20091;-68
2022/04/02 21:32:29;;;;;;;7.95;3.00;;;3.00;68.80;;;;;;8395865;28;20055;-68
2022/04/02 21:36:31;;;;;;;6.72;2.65;;;2.90;68.70;;;;;;8398422;28;20052;-68
2022/04/02 21:40:33;;;;;;;5.55;2.40;;;2.80;68.70;;;;;;8388932;28;20055;-68
2022/04/02 21:44:34;;;;;;;4.03;1.80;;;2.60;68.70;;;;;;8396432;28;20559;-68
2022/04/02 21:48:36;;;;;;;3.95;1.92;;;2.50;68.80;;;;;;8402952;28;20049;-68
2022/04/02 21:52:38;;;;;;;;;;;2.40;68.90;;;;;;8405937;28;20060;-68
2022/04/02 21:56:40;;;;;;;;;;;2.20;68.90;;;;;;8414748;28;20375;-68
2022/04/02 22:01:07;;;;;;;;;;;2.10;69.00;;;;;;8411587;28;20019;-68
2022/04/02 22:05:09;;;;;;;;;;;1.90;69.10;;;;;;8408889;28;19943;-68
2022/04/02 22:09:11;;;;;;;;;;;1.80;69.20;;;;;;8397678;28;19920;-68
2022/04/02 22:13:15;;;;;;;;;;;1.80;69.30;;;;;;8405093;28;19920;-68
2022/04/02 22:17:16;;;;;;;;;;;1.70;69.30;;;;;;8407849;28;19920;-68
2022/04/02 22:21:18;;;;;;;;;;;1.70;69.50;;;;;;8390396;28;19927;-68
2022/04/02 22:25:20;;;;;;;;;;;1.60;69.50;;;;;;8373558;28;20300;-68
2022/04/02 22:29:22;;;;;;;;;;;1.50;69.60;;;;;;8386655;28;20248;-68
2022/04/02 22:33:23;;;;;;;;;;;1.50;69.90;;;;;;8410146;28;19928;-68
2022/04/02 22:37:25;;;;;;;;;;;1.40;70.00;;;;;;8397442;28;19927;-68
2022/04/02 22:41:27;;;;;;;;;;;1.40;70.30;;;;;;8380459;28;19921;-68
2022/04/02 22:45:29;;;;;;;;;;;1.40;70.20;;;;;;8408790;28;19936;-68
2022/04/02 22:49:30;;;;;;;;;;;1.40;70.00;;;;;;8422749;28;19920;-68
2022/04/02 22:53:33;;;;;;;;;;;1.30;69.90;;;;;;8392670;28;19998;-68
2022/04/02 22:57:34;;;;;;;;;;;1.20;69.90;;;;;;8393499;28;19928;-68
2022/04/02 23:01:36;;;;;;;;;;;1.20;70.00;;;;;;8405192;28;20362;-68
2022/04/02 23:05:38;;;;;;;;;;;1.10;70.00;;;;;;8405427;28;19921;-68
2022/04/02 23:09:40;;;;;;;;;;;1.10;70.10;;;;;;8406215;28;19931;-68
2022/04/02 23:13:42;;;;;;;;;;;1.00;70.00;;;;;;8403134;28;20023;-68
2022/04/02 23:17:44;;;;;;;;;;;1.00;70.00;;;;;;8405925;28;20304;-67
2022/04/02 23:21:46;;;;;;;;;;;0.90;70.00;;;;;;8392854;28;20398;-68
2022/04/02 23:25:48;;;;;;;;;;;0.90;70.00;;;;;;8411540;28;19927;-68
2022/04/02 23:29:50;;;;;;;;;;;0.80;70.00;;;;;;8409243;28;19931;-68
2022/04/02 23:33:51;;;;;;;;;;;0.80;70.00;;;;;;8404728;28;19920;-68
2022/04/02 23:37:53;;;;;;;;;;;0.80;70.00;;;;;;8397560;28;19920;-68
2022/04/02 23:41:55;;;;;;;;;;;0.70;70.00;;;;;;8413491;28;20272;-68
2022/04/02 23:45:56;;;;;;;;;;;0.60;70.10;;;;;;8391019;28;19920;-68
2022/04/02 23:49:58;;;;;;;;;;;0.60;70.10;;;;;;8406560;28;20356;-68
2022/04/02 23:53:59;;;;;;;;;;;0.60;70.20;;;;;;8407348;28;19924;-68